Time;durP1;ratioP1;P1;durP2;ratioP2;P2;SDS_P1;SDS_P2;PMS_P1;PMS_P2;Temp;Humidity;BMP_temperature;BMP_pressure;BME280_temperature;BME280_humidity;BME280_pressure;Samples;Min_cycle;Max_cycle;Signal;HPM_P1;HPM_P2
2022/12/14 00:01:22;;;;;;;40.52;23.50;;;;;;;-3.30;73.25;101283.75;1683210;84;25884;-64
2022/12/14 00:03:51;;;;;;;43.63;22.60;;;;;;;-3.34;73.16;101289.54;1682966;84;26674;-64
2022/12/14 00:06:28;;;;;;;49.05;25.10;;;;;;;-3.33;73.26;101285.13;1683219;84;28286;-63
2022/12/14 00:09:01;;;;;;;43.52;23.65;;;;;;;-3.34;73.22;101294.80;1682397;84;25860;-63
2022/12/14 00:11:28;;;;;;;45.90;22.62;;;;;;;-3.42;72.98;101296.73;1683019;85;25798;-64
2022/12/14 00:13:58;;;;;;;44.48;21.93;;;;;;;-3.48;72.94;101295.10;1683212;84;25782;-63
2022/12/14 00:16:31;;;;;;;42.17;21.75;;;;;;;-3.55;72.95;101299.20;1683365;84;25774;-64
2022/12/14 00:19:00;;;;;;;41.20;23.20;;;;;;;-3.62;72.93;101304.60;1683232;85;27521;-64
2022/12/14 00:21:28;;;;;;;43.08;23.12;;;;;;;-3.66;72.92;101307.33;1683086;85;25801;-63
2022/12/14 00:23:57;;;;;;;45.40;24.12;;;;;;;-3.73;72.97;101319.73;1683317;84;26470;-63
2022/12/14 00:26:28;;;;;;;43.65;23.62;;;;;;;-3.75;72.96;101305.73;1698623;83;25783;-63
2022/12/14 00:28:58;;;;;;;46.33;24.10;;;;;;;-3.80;72.99;101313.72;1701905;83;25813;-63
2022/12/14 00:31:25;;;;;;;43.52;22.20;;;;;;;-3.82;72.99;101312.91;1701294;84;27484;-64
2022/12/14 00:33:52;;;;;;;45.35;23.15;;;;;;;-3.82;72.98;101315.97;1715542;82;25745;-63
2022/12/14 00:36:20;;;;;;;43.10;21.25;;;;;;;-3.83;73.00;101315.55;1737583;82;25543;-64
2022/12/14 00:38:47;;;;;;;47.13;22.93;;;;;;;-3.84;73.00;101322.58;1737607;82;27931;-63
2022/12/14 00:41:16;;;;;;;39.55;21.27;;;;;;;-3.83;73.02;101324.31;1732743;82;44075;-64
2022/12/14 00:43:43;;;;;;;56.15;21.50;;;;;;;-3.85;73.04;101320.84;1727466;83;28308;-63
2022/12/14 00:46:09;;;;;;;46.55;22.65;;;;;;;-3.86;73.00;101320.89;1727403;83;26489;-64
2022/12/14 00:48:36;;;;;;;43.65;23.55;;;;;;;-3.90;72.85;101311.31;1727515;83;25800;-64
2022/12/14 00:51:03;;;;;;;46.53;21.65;;;;;;;-3.91;72.95;101311.77;1727568;83;25826;-64
2022/12/14 00:53:31;;;;;;;42.17;21.90;;;;;;;-3.93;72.89;101318.81;1707991;83;27327;-64
2022/12/14 00:56:07;;;;;;;41.65;22.70;;;;;;;-3.95;72.96;101321.91;1714530;83;27639;-64
2022/12/14 00:58:34;;;;;;;43.83;22.27;;;;;;;-4.00;72.80;101325.95;1714328;83;25717;-64
2022/12/14 01:01:11;;;;;;;45.20;22.58;;;;;;;-4.04;72.89;101315.52;1714624;83;25705;-64
2022/12/14 01:03:38;;;;;;;42.05;22.05;;;;;;;-4.07;72.89;101316.45;1714941;83;26039;-64
2022/12/14 01:06:18;;;;;;;42.08;22.45;;;;;;;-4.09;72.83;101312.98;1678929;84;26114;-64
2022/12/14 01:08:45;;;;;;;41.33;22.22;;;;;;;-4.16;72.74;101321.87;1677678;84;27572;-64
2022/12/14 01:11:14;;;;;;;39.95;22.45;;;;;;;-4.22;72.80;101322.86;1712590;83;25797;-64
2022/12/14 01:13:41;;;;;;;37.45;21.50;;;;;;;-4.23;72.84;101322.89;1714293;83;25753;-65
2022/12/14 01:16:13;;;;;;;40.60;21.23;;;;;;;-4.25;72.93;101326.84;1678062;84;25796;-64
2022/12/14 01:18:42;;;;;;;46.33;23.30;;;;;;;-4.23;73.01;101324.20;1714947;83;25745;-65
2022/12/14 01:21:14;;;;;;;43.98;22.70;;;;;;;-4.20;72.94;101322.81;1714448;83;27472;-65
2022/12/14 01:23:43;;;;;;;46.58;23.73;;;;;;;-4.19;72.93;101320.61;1713839;83;25792;-65
2022/12/14 01:26:11;;;;;;;37.10;20.30;;;;;;;-4.25;72.78;101317.22;1714419;83;25782;-65
2022/12/14 01:28:39;;;;;;;40.90;21.93;;;;;;;-4.26;72.89;101316.80;1714349;83;25786;-65
2022/12/14 01:31:16;;;;;;;46.33;24.15;;;;;;;-4.26;72.95;101318.11;1714325;82;25712;-65
2022/12/14 01:33:44;;;;;;;52.27;24.27;;;;;;;-4.27;72.91;101315.05;1722321;81;27441;-65
2022/12/14 01:36:16;;;;;;;47.17;24.43;;;;;;;-4.28;73.03;101319.89;1738149;82;25741;-64
2022/12/14 01:38:44;;;;;;;53.23;24.92;;;;;;;-4.29;73.01;101318.61;1739012;81;25704;-64
2022/12/14 01:41:27;;;;;;;46.35;22.65;;;;;;;-4.29;73.03;101323.87;1729138;82;25884;-64
2022/12/14 01:44:11;;;;;;;52.23;23.80;;;;;;;-4.30;72.97;101328.70;1702839;83;25899;-64
2022/12/14 01:46:46;;;;;;;44.60;21.68;;;;;;;-4.30;72.93;101327.38;1700664;83;27501;-64
2022/12/14 01:49:36;;;;;;;39.08;21.82;;;;;;;-4.32;72.84;101331.80;1702230;84;25870;-64
2022/12/14 01:52:24;;;;;;;43.85;21.90;;;;;;;-4.37;72.74;101328.39;1702489;82;25733;-63
2022/12/14 01:55:05;;;;;;;42.55;21.33;;;;;;;-4.40;72.74;101331.95;1695106;84;26476;-63
2022/12/14 01:57:50;;;;;;;41.35;22.80;;;;;;;-4.44;72.75;101327.16;1701022;84;25476;-63
2022/12/14 02:00:17;;;;;;;43.63;23.35;;;;;;;-4.45;72.73;101334.65;1687270;83;27652;-63
2022/12/14 02:03:01;;;;;;;40.10;21.27;;;;;;;-4.46;72.79;101332.03;1700970;84;25885;-62
2022/12/14 02:05:31;;;;;;;51.48;22.60;;;;;;;-4.47;72.82;101339.05;1701433;83;25829;-63
2022/12/14 02:07:58;;;;;;;39.65;21.80;;;;;;;-4.50;72.79;101337.78;1701305;83;25954;-63
2022/12/14 02:10:28;;;;;;;47.33;21.30;;;;;;;-4.52;72.78;101336.08;1701252;83;27369;-63
2022/12/14 02:13:20;;;;;;;40.30;22.02;;;;;;;-4.56;72.74;101337.89;1700167;84;27512;-63
2022/12/14 02:15:48;;;;;;;41.73;21.75;;;;;;;-4.59;72.69;101337.51;1700044;83;25784;-63
2022/12/14 02:18:23;;;;;;;45.67;22.85;;;;;;;-4.66;72.71;101333.69;1699846;84;25953;-63
2022/12/14 02:21:01;;;;;;;39.13;21.30;;;;;;;-4.66;72.83;101335.84;1699473;84;26072;-63
2022/12/14 02:23:48;;;;;;;38.85;21.40;;;;;;;-4.68;72.79;101340.71;1699807;84;27320;-63
2022/12/14 02:26:28;;;;;;;42.60;22.00;;;;;;;-4.71;72.80;101331.98;1682215;84;27537;-62
2022/12/14 02:29:51;;;;;;;43.17;23.50;;;;;;;-4.72;72.68;101328.97;1678099;85;25759;-63
2022/12/14 02:32:38;;;;;;;43.40;22.90;;;;;;;-4.74;72.71;101321.98;1677623;84;25754;-63
2022/12/14 02:35:44;;;;;;;50.28;23.87;;;;;;;-4.74;72.72;101324.61;1723398;82;25854;-63
2022/12/14 02:38:37;;;;;;;48.75;21.65;;;;;;;-4.75;72.75;101329.00;1729837;82;25728;-63
2022/12/14 02:41:39;;;;;;;46.15;21.52;;;;;;;-4.83;72.59;101330.89;1730212;82;27001;-63
2022/12/14 02:44:23;;;;;;;43.90;22.25;;;;;;;-4.88;72.57;101328.33;1729326;82;25867;-63
2022/12/14 02:47:07;;;;;;;44.35;22.90;;;;;;;-4.89;72.65;101343.66;1729679;82;25741;-63
2022/12/14 02:50:05;;;;;;;55.48;23.30;;;;;;;-4.93;72.32;101348.52;1730173;82;25927;-63
2022/12/14 02:53:05;;;;;;;46.28;22.30;;;;;;;-4.93;72.64;101343.27;1704772;82;26159;-63
2022/12/14 02:55:43;;;;;;;44.35;21.65;;;;;;;-4.87;73.10;101338.37;1692395;83;27487;-62
2022/12/14 02:58:32;;;;;;;48.45;22.00;;;;;;;-4.78;73.20;101338.69;1691365;83;25681;-63
2022/12/14 03:01:00;;;;;;;41.50;22.82;;;;;;;-4.72;73.09;101349.08;1690603;83;25852;-64
2022/12/14 03:03:27;;;;;;;45.50;23.02;;;;;;;-4.71;73.17;101351.67;1686840;83;25668;-64
2022/12/14 03:05:58;;;;;;;43.75;22.70;;;;;;;-4.67;73.12;101345.07;1690915;83;25539;-64
2022/12/14 03:08:28;;;;;;;48.20;23.20;;;;;;;-4.65;73.00;101346.78;1688795;84;28106;-64
2022/12/14 03:11:02;;;;;;;40.25;22.35;;;;;;;-4.64;72.83;101348.97;1688280;84;25960;-64
2022/12/14 03:13:46;;;;;;;39.13;20.35;;;;;;;-4.68;72.68;101353.84;1688175;82;25805;-64
2022/12/14 03:16:24;;;;;;;44.80;21.30;;;;;;;-4.75;72.55;101366.22;1691864;83;25791;-64
2022/12/14 03:19:05;;;;;;;43.73;21.30;;;;;;;-4.80;72.50;101372.84;1688195;83;25801;-64
2022/12/14 03:21:37;;;;;;;40.92;21.20;;;;;;;-4.80;72.57;101370.66;1685476;84;27530;-64
2022/12/14 03:24:11;;;;;;;37.42;20.52;;;;;;;-4.84;72.43;101365.89;1690180;83;25835;-65
2022/12/14 03:26:58;;;;;;;41.88;21.27;;;;;;;-4.88;72.53;101370.75;1706272;84;25797;-64
2022/12/14 03:29:28;;;;;;;44.45;22.30;;;;;;;-4.89;72.56;101376.46;1705934;83;25859;-63
2022/12/14 03:32:02;;;;;;;45.17;22.60;;;;;;;-4.87;72.55;101377.74;1707477;82;25792;-63
2022/12/14 03:34:34;;;;;;;47.30;23.10;;;;;;;-4.85;72.78;101382.98;1721433;82;27485;-63
2022/12/14 03:37:15;;;;;;;37.83;21.23;;;;;;;-4.82;72.78;101377.67;1726671;82;26145;-62
2022/12/14 03:39:44;;;;;;;49.13;22.95;;;;;;;-4.82;72.71;101378.56;1730301;82;25698;-63
2022/12/14 03:42:24;;;;;;;38.88;20.27;;;;;;;-4.83;72.75;101379.87;1735311;80;26404;-65
2022/12/14 03:45:06;;;;;;;47.80;23.42;;;;;;;-4.83;72.74;101383.38;1742181;82;25856;-63
2022/12/14 03:48:08;;;;;;;49.13;24.25;;;;;;;-4.84;72.70;101384.73;1743027;82;27502;-63
2022/12/14 03:50:46;;;;;;;46.15;22.48;;;;;;;-4.85;72.73;101386.47;1743261;81;25900;-63
2022/12/14 03:53:34;;;;;;;40.28;21.80;;;;;;;-4.85;72.60;101385.16;1736398;81;25811;-63
2022/12/14 03:56:15;;;;;;;49.05;22.20;;;;;;;-4.81;72.67;101387.28;1720102;81;25794;-63
2022/12/14 03:59:17;;;;;;;53.98;26.40;;;;;;;-4.83;72.60;101387.32;1714407;83;26113;-63
2022/12/14 04:02:05;;;;;;;42.73;21.60;;;;;;;-4.85;72.75;101390.41;1713493;83;28631;-64
2022/12/14 04:04:43;;;;;;;64.22;32.50;;;;;;;-4.91;72.81;101384.80;1713376;83;25805;-63
2022/12/14 04:07:31;;;;;;;57.38;30.43;;;;;;;-4.89;72.96;101386.11;1714026;82;25816;-63
2022/12/14 04:18:55;;;;;;;50.73;25.02;;;;;;;-4.90;72.83;101382.59;1713890;82;25808;-62
2022/12/14 04:21:18;;;;;;;44.88;22.87;;;;;;;-4.72;72.84;101381.90;1714034;83;26166;-62
2022/12/14 04:26:41;;;;;;;43.65;21.62;;;;;;;-4.71;72.57;101390.20;1722006;83;25645;-63
2022/12/14 04:32:08;;;;;;;44.90;21.52;;;;;;;-4.67;72.74;101401.52;1722453;82;25922;-63
2022/12/14 04:34:38;;;;;;;43.42;22.80;;;;;;;-4.63;72.82;101395.34;1722689;82;25529;-63
2022/12/14 04:37:09;;;;;;;42.93;19.67;;;;;;;-4.62;72.95;101393.15;1722256;82;25786;-63
2022/12/14 04:40:00;;;;;;;41.35;21.17;;;;;;;-4.60;72.66;101400.53;1722673;82;25732;-63
2022/12/14 04:42:33;;;;;;;42.17;19.95;;;;;;;-4.65;72.53;101393.19;1722338;82;27402;-63
2022/12/14 04:45:11;;;;;;;39.42;20.25;;;;;;;-4.70;72.50;101397.19;1722668;82;25793;-64
2022/12/14 04:47:43;;;;;;;42.60;21.52;;;;;;;-4.73;72.62;101386.73;1722237;82;25749;-65
2022/12/14 04:50:24;;;;;;;36.08;17.82;;;;;;;-4.73;72.73;101393.29;1722528;82;25814;-66
2022/12/14 04:53:02;;;;;;;53.10;25.32;;;;;;;-4.76;72.67;101395.52;1720612;81;25856;-66
2022/12/14 04:55:52;;;;;;;46.58;21.90;;;;;;;-4.75;72.76;101392.47;1697171;84;27448;-63
2022/12/14 04:58:25;;;;;;;43.10;20.88;;;;;;;-4.78;72.51;101397.30;1697862;83;25489;-63
2022/12/14 05:01:34;;;;;;;44.13;20.40;;;;;;;-4.83;72.55;101386.01;1698024;83;25740;-63
2022/12/14 05:04:15;;;;;;;38.88;20.25;;;;;;;-4.89;72.40;101389.58;1698096;83;25908;-63
2022/12/14 05:06:53;;;;;;;39.60;20.32;;;;;;;-4.92;72.61;101396.64;1666702;83;25923;-65
2022/12/14 05:09:49;;;;;;;42.67;20.23;;;;;;;-4.94;72.73;101391.42;1697922;82;27545;-65
2022/12/14 05:12:27;;;;;;;47.27;22.20;;;;;;;-4.94;72.82;101396.67;1697516;83;25765;-65
2022/12/14 05:15:15;;;;;;;43.50;20.57;;;;;;;-4.97;72.88;101395.39;1697224;83;25473;-64
2022/12/14 05:17:43;;;;;;;45.43;21.55;;;;;;;-4.97;72.77;101399.75;1677680;84;25819;-64
2022/12/14 05:20:18;;;;;;;40.38;18.90;;;;;;;-4.97;72.80;101403.69;1733589;82;25762;-64
2022/12/14 05:22:44;;;;;;;36.20;19.10;;;;;;;-4.95;72.90;101395.36;1698053;83;26783;-64
2022/12/14 05:25:12;;;;;;;41.28;22.07;;;;;;;-4.92;72.99;101402.73;1667101;85;25728;-64
2022/12/14 05:27:39;;;;;;;38.67;19.40;;;;;;;-4.92;72.89;101405.82;1721932;83;25761;-64
2022/12/14 05:30:09;;;;;;;43.20;20.30;;;;;;;-4.92;72.97;101407.98;1722015;83;26584;-65
2022/12/14 05:32:35;;;;;;;43.63;21.57;;;;;;;-4.92;72.98;101408.45;1722563;82;25697;-64
2022/12/14 05:35:05;;;;;;;36.03;18.85;;;;;;;-4.90;73.07;101410.16;1741405;81;27511;-64
2022/12/14 05:37:32;;;;;;;31.37;17.42;;;;;;;-4.89;72.89;101417.14;1743359;81;25839;-65
2022/12/14 05:39:59;;;;;;;30.82;17.60;;;;;;;-4.89;72.81;101418.91;1743139;82;25858;-65
2022/12/14 05:42:26;;;;;;;39.18;18.67;;;;;;;-4.89;72.74;101423.70;1740134;81;26487;-64
2022/12/14 05:44:53;;;;;;;39.90;18.92;;;;;;;-4.90;72.78;101420.66;1726803;83;26161;-65
2022/12/14 05:47:21;;;;;;;37.08;19.30;;;;;;;-4.91;72.63;101416.75;1726974;82;27701;-65
2022/12/14 05:49:48;;;;;;;33.20;17.27;;;;;;;-4.95;72.56;101421.60;1726611;82;25829;-65
2022/12/14 05:52:15;;;;;;;34.48;16.90;;;;;;;-4.93;72.89;101421.14;1726795;82;25775;-65
2022/12/14 05:54:42;;;;;;;38.30;19.15;;;;;;;-4.88;72.91;101424.55;1687571;83;26612;-65
2022/12/14 05:57:09;;;;;;;34.30;16.55;;;;;;;-4.93;72.65;101422.00;1681403;84;25779;-65
2022/12/14 05:59:36;;;;;;;41.63;17.70;;;;;;;-4.92;72.69;101424.20;1689423;83;28344;-64
2022/12/14 06:02:04;;;;;;;39.67;19.45;;;;;;;-4.93;72.69;101430.33;1699756;84;25742;-64
2022/12/14 06:04:31;;;;;;;49.03;21.62;;;;;;;-4.96;72.56;101439.12;1701020;84;25737;-64
2022/12/14 06:06:58;;;;;;;55.08;23.85;;;;;;;-4.95;72.77;101438.66;1701599;84;25777;-64
2022/12/14 06:09:25;;;;;;;39.25;19.23;;;;;;;-4.95;72.84;101439.55;1682188;84;25860;-65
2022/12/14 06:11:52;;;;;;;43.20;19.90;;;;;;;-4.94;72.89;101439.97;1695347;83;27512;-64
2022/12/14 06:14:20;;;;;;;51.42;18.98;;;;;;;-4.89;73.00;101435.97;1699312;83;25801;-64
2022/12/14 06:16:47;;;;;;;37.42;17.48;;;;;;;-4.81;73.13;101446.34;1689924;84;25726;-64
2022/12/14 06:19:15;;;;;;;38.92;17.40;;;;;;;-4.78;73.10;101448.48;1700784;84;26426;-65
2022/12/14 06:21:43;;;;;;;28.75;16.30;;;;;;;-4.76;73.00;101448.02;1701040;84;25893;-65
2022/12/14 06:24:12;;;;;;;55.43;18.40;;;;;;;-4.68;73.07;101448.35;1700356;84;27549;-64
2022/12/14 06:26:39;;;;;;;41.10;19.02;;;;;;;-4.64;72.99;101449.59;1700949;84;25793;-64
2022/12/14 06:29:09;;;;;;;34.70;19.55;;;;;;;-4.62;72.84;101446.52;1701173;84;25873;-64
2022/12/14 06:31:37;;;;;;;36.70;18.62;;;;;;;-4.56;72.99;101443.78;1699323;83;25836;-64
2022/12/14 06:34:04;;;;;;;46.33;20.50;;;;;;;-4.49;73.03;101447.20;1705365;82;25890;-64
2022/12/14 06:36:37;;;;;;;40.92;17.95;;;;;;;-4.43;73.09;101439.21;1702590;84;27454;-64
2022/12/14 06:39:10;;;;;;;40.33;19.07;;;;;;;-4.37;72.91;101438.72;1702521;83;25972;-64
2022/12/14 06:41:39;;;;;;;43.45;18.70;;;;;;;-4.32;72.87;101437.75;1694551;82;25805;-64
2022/12/14 06:44:10;;;;;;;29.77;16.60;;;;;;;-4.28;72.80;101424.12;1690122;83;25810;-64
2022/12/14 06:46:38;;;;;;;50.60;20.00;;;;;;;-4.25;72.69;101425.36;1696492;83;25933;-64
2022/12/14 06:49:06;;;;;;;40.10;19.67;;;;;;;-4.20;72.83;101426.17;1701925;84;27644;-64
2022/12/14 06:51:40;;;;;;;40.75;18.52;;;;;;;-4.13;72.98;101430.89;1675597;84;25849;-64
2022/12/14 06:54:11;;;;;;;39.70;20.08;;;;;;;-4.05;73.07;101425.48;1672208;85;25840;-64
2022/12/14 06:56:39;;;;;;;38.85;20.62;;;;;;;-3.96;73.01;101424.89;1701312;84;26133;-64
2022/12/14 06:59:07;;;;;;;41.65;20.72;;;;;;;-3.91;72.97;101431.38;1701417;84;25749;-64
2022/12/14 07:01:35;;;;;;;43.28;20.88;;;;;;;-3.89;72.84;101430.03;1701444;84;28142;-64
2022/12/14 07:04:03;;;;;;;45.90;20.75;;;;;;;-3.79;72.97;101425.88;1701365;84;25886;-64
2022/12/14 07:06:35;;;;;;;44.65;22.50;;;;;;;-3.70;72.98;101420.91;1701041;84;25796;-64
2022/12/14 07:09:04;;;;;;;45.12;22.77;;;;;;;-3.64;72.99;101426.51;1700700;83;25821;-64
2022/12/14 07:11:32;;;;;;;53.17;28.23;;;;;;;-3.56;73.26;101427.23;1700472;84;25842;-64
2022/12/14 07:14:01;;;;;;;56.13;27.05;;;;;;;-3.39;73.42;101418.98;1700908;84;27396;-63
2022/12/14 07:16:28;;;;;;;52.93;26.12;;;;;;;-3.23;73.44;101423.49;1700706;84;25721;-64
2022/12/14 07:18:55;;;;;;;62.43;28.62;;;;;;;-3.07;73.59;101415.27;1701021;84;25722;-64
2022/12/14 07:21:24;;;;;;;54.75;26.87;;;;;;;-2.91;73.66;101411.86;1700809;84;27994;-63
2022/12/14 07:23:52;;;;;;;47.85;26.52;;;;;;;-2.80;73.35;101408.55;1691445;84;25844;-64
2022/12/14 07:26:23;;;;;;;63.87;26.35;;;;;;;-2.65;73.33;101410.40;1696383;83;27614;-64
2022/12/14 07:28:51;;;;;;;55.43;26.27;;;;;;;-2.54;73.50;101405.75;1689765;84;25857;-65
2022/12/14 07:31:26;;;;;;;58.65;24.52;;;;;;;-2.39;73.63;101406.69;1683048;84;25790;-64
2022/12/14 07:33:55;;;;;;;56.77;23.70;;;;;;;-2.25;73.40;101413.41;1669123;84;25804;-64
2022/12/14 07:36:24;;;;;;;52.83;26.48;;;;;;;-2.16;72.94;101414.50;1707463;84;25726;-64
2022/12/14 07:38:51;;;;;;;50.00;23.42;;;;;;;-2.09;72.95;101412.55;1707313;84;28223;-64
2022/12/14 07:41:23;;;;;;;51.83;23.00;;;;;;;-1.96;73.03;101420.57;1675515;84;25855;-64
2022/12/14 07:43:51;;;;;;;52.78;23.83;;;;;;;-1.80;73.07;101415.77;1689262;83;25787;-64
2022/12/14 07:46:25;;;;;;;39.83;22.37;;;;;;;-1.67;73.17;101408.82;1676859;84;25833;-64
2022/12/14 07:48:56;;;;;;;41.70;21.60;;;;;;;-1.56;73.05;101402.80;1662163;85;25852;-64
2022/12/14 07:51:27;;;;;;;42.17;20.80;;;;;;;-1.46;72.82;101394.16;1690782;83;27481;-64
2022/12/14 07:53:55;;;;;;;39.73;22.30;;;;;;;-1.34;72.73;101398.22;1662234;83;25857;-65
2022/12/14 07:56:29;;;;;;;41.33;22.17;;;;;;;-1.24;72.78;101397.05;1718900;82;25813;-64
2022/12/14 07:58:59;;;;;;;34.73;19.23;;;;;;;-1.12;72.85;101402.45;1717220;81;25828;-64
2022/12/14 08:01:30;;;;;;;41.92;21.00;;;;;;;-0.98;72.85;101414.77;1729180;82;25712;-64
2022/12/14 08:04:08;;;;;;;43.30;20.70;;;;;;;-0.81;72.80;101416.03;1731803;82;27469;-65
2022/12/14 08:06:37;;;;;;;32.33;17.55;;;;;;;-0.71;72.40;101428.48;1732112;82;25899;-65
2022/12/14 08:09:06;;;;;;;34.55;18.90;;;;;;;-0.61;71.86;101435.69;1731908;82;25760;-65
2022/12/14 08:11:33;;;;;;;35.10;19.35;;;;;;;-0.39;71.62;101443.80;1732043;82;25800;-65
2022/12/14 08:14:15;;;;;;;41.42;22.82;;;;;;;0.03;70.76;101444.63;1731602;82;26461;-65
2022/12/14 08:16:44;;;;;;;36.28;19.85;;;;;;;0.68;69.96;101445.46;1731995;82;27488;-65
2022/12/14 08:19:12;;;;;;;37.70;21.15;;;;;;;1.28;68.94;101441.05;1731675;82;25656;-65
2022/12/14 08:21:39;;;;;;;54.03;24.18;;;;;;;1.63;67.43;101441.43;1731973;82;25836;-65
2022/12/14 08:24:10;;;;;;;44.65;23.38;;;;;;;1.96;65.89;101443.61;1731718;82;26522;-65
2022/12/14 08:26:37;;;;;;;42.23;22.27;;;;;;;2.35;65.80;101436.22;1715480;82;25827;-65
2022/12/14 08:29:05;;;;;;;40.55;24.18;;;;;;;2.78;65.40;101430.80;1714339;83;26719;-65
2022/12/14 08:31:32;;;;;;;38.85;24.52;;;;;;;3.03;63.98;101434.98;1714589;82;25827;-65
2022/12/14 08:34:01;;;;;;;37.48;22.45;;;;;;;3.16;64.26;101437.93;1728424;81;25797;-66
2022/12/14 08:36:32;;;;;;;38.70;21.68;;;;;;;3.51;63.84;101436.23;1718588;82;25981;-66
2022/12/14 08:39:04;;;;;;;41.95;23.67;;;;;;;3.88;63.58;101431.77;1697689;83;25741;-65
2022/12/14 08:41:32;;;;;;;33.53;21.75;;;;;;;4.26;63.34;101425.42;1693695;83;27478;-65
2022/12/14 08:44:01;;;;;;;36.58;21.68;;;;;;;4.64;62.74;101413.23;1698636;82;27364;-65
2022/12/14 08:46:30;;;;;;;38.90;22.48;;;;;;;5.02;62.17;101408.09;1698345;84;25742;-66
2022/12/14 08:48:57;;;;;;;37.67;21.55;;;;;;;5.38;61.10;101406.14;1698446;83;26435;-66
2022/12/14 08:51:26;;;;;;;38.30;22.00;;;;;;;5.76;61.10;101397.25;1720543;82;25650;-66
2022/12/14 08:53:55;;;;;;;31.73;20.52;;;;;;;5.99;58.47;101393.75;1691678;84;27471;-66
2022/12/14 08:56:26;;;;;;;33.20;19.55;;;;;;;6.03;58.05;101393.09;1720750;82;25714;-66
2022/12/14 08:58:53;;;;;;;34.08;19.62;;;;;;;6.35;59.09;101383.14;1717816;83;26419;-66
2022/12/14 09:01:25;;;;;;;31.27;20.02;;;;;;;6.58;57.71;101380.39;1697022;84;25778;-67
2022/12/14 09:03:52;;;;;;;40.75;20.57;;;;;;;6.71;56.33;101377.80;1697171;83;25775;-66
2022/12/14 09:06:25;;;;;;;32.42;19.52;;;;;;;6.86;54.41;101370.60;1698340;84;27577;-67
2022/12/14 09:08:53;;;;;;;35.88;19.90;;;;;;;7.06;55.41;101357.77;1722634;82;25725;-66
2022/12/14 09:11:22;;;;;;;26.70;18.25;;;;;;;7.26;55.41;101367.17;1717766;83;25737;-67
2022/12/14 09:13:54;;;;;;;29.90;19.00;;;;;;;7.54;54.48;101361.84;1715833;83;25767;-67
2022/12/14 09:16:25;;;;;;;23.40;16.57;;;;;;;7.66;52.89;101359.70;1716086;83;26156;-66
2022/12/14 09:18:52;;;;;;;34.65;17.75;;;;;;;7.98;54.55;101360.66;1716316;83;27316;-67
2022/12/14 09:21:20;;;;;;;27.27;18.27;;;;;;;8.46;53.67;101359.58;1715910;83;25929;-66
2022/12/14 09:23:47;;;;;;;29.40;18.12;;;;;;;9.11;54.12;101349.21;1716013;83;25707;-67
2022/12/14 09:26:18;;;;;;;25.10;17.60;;;;;;;9.45;53.25;101348.08;1721044;83;25816;-67
2022/12/14 09:28:50;;;;;;;27.48;17.00;;;;;;;9.68;51.27;101342.33;1722926;82;25778;-67
2022/12/14 09:31:21;;;;;;;25.88;15.80;;;;;;;9.84;49.84;101337.96;1722016;82;27469;-67
2022/12/14 09:33:49;;;;;;;23.50;16.52;;;;;;;10.30;48.87;101338.42;1725650;81;25810;-67
2022/12/14 09:36:20;;;;;;;24.95;14.78;;;;;;;10.75;49.17;101334.06;1731505;82;25649;-67
2022/12/14 09:38:48;;;;;;;23.10;16.48;;;;;;;11.17;46.14;101330.19;1730488;82;25812;-67
2022/12/14 09:41:41;;;;;;;19.50;11.95;;;;;;;11.32;43.81;101324.03;1731270;82;25713;-67
2022/12/14 09:44:25;;;;;;;20.23;9.58;;;;;;;11.47;40.88;101326.45;1731849;81;27532;-66
2022/12/14 09:47:10;;;;;;;13.65;9.28;;;;;;;11.52;38.18;101321.01;1735939;82;25532;-66
2022/12/14 09:50:11;;;;;;;14.03;8.60;;;;;;;11.63;35.95;101318.78;1724346;82;25725;-67
2022/12/14 09:52:43;;;;;;;12.13;8.20;;;;;;;11.58;36.42;101315.13;1735790;81;25798;-67
2022/12/14 09:55:28;;;;;;;17.32;9.00;;;;;;;11.74;36.20;101320.55;1714685;82;25726;-67
2022/12/14 09:58:19;;;;;;;14.73;9.43;;;;;;;11.93;36.22;101323.03;1675240;84;27630;-66
2022/12/14 10:01:24;;;;;;;20.85;9.15;;;;;;;12.28;33.13;101319.99;1712409;83;27279;-67
2022/12/14 10:04:17;;;;;;;;;;;;;;;12.16;33.60;101315.17;1717195;82;26003;-66
2022/12/14 10:06:49;;;;;;;14.87;8.45;;;;;;;12.26;35.66;101304.94;1713557;83;26450;-66
2022/12/14 10:09:39;;;;;;;37.90;9.85;;;;;;;12.44;36.20;101304.67;1675859;84;25799;-67
2022/12/14 10:12:32;;;;;;;16.42;8.60;;;;;;;12.70;36.21;101294.75;1713396;82;27505;-67
2022/12/14 10:15:25;;;;;;;18.50;8.35;;;;;;;13.11;33.71;101287.95;1638443;86;25590;-67
2022/12/14 10:18:30;;;;;;;15.38;7.72;;;;;;;13.18;32.89;101288.25;1702746;82;25746;-67
2022/12/14 10:21:14;;;;;;;11.00;7.95;;;;;;;13.27;32.63;101284.19;1712304;83;25803;-67
2022/12/14 10:23:53;;;;;;;;;;;;;;;13.41;34.16;101288.34;1716525;82;25826;-67
2022/12/14 10:26:26;;;;;;;13.88;7.90;;;;;;;13.59;33.31;101276.81;1724128;82;27565;-67
2022/12/14 10:29:12;;;;;;;19.48;7.62;;;;;;;13.73;32.58;101277.75;1727003;82;25826;-64
2022/12/14 10:31:53;;;;;;;9.90;7.20;;;;;;;14.08;31.29;101277.59;1727360;83;26041;-64
2022/12/14 10:34:24;;;;;;;16.62;7.58;;;;;;;14.14;28.88;101259.92;1726642;83;25963;-65
2022/12/14 10:37:02;;;;;;;16.50;8.00;;;;;;;13.93;29.28;101270.95;1725192;82;25754;-65
2022/12/14 10:40:04;;;;;;;15.88;8.15;;;;;;;13.87;30.10;101272.87;1707178;84;27574;-67
2022/12/14 10:42:48;;;;;;;15.40;7.80;;;;;;;13.87;30.23;101266.98;1720832;82;25709;-67
2022/12/14 10:45:54;;;;;;;17.60;8.65;;;;;;;13.87;30.19;101264.75;1728432;82;25732;-67
2022/12/14 10:48:32;;;;;;;19.95;8.53;;;;;;;14.02;30.06;101255.20;1735573;81;25792;-68
2022/12/14 10:51:29;;;;;;;16.32;9.58;;;;;;;14.14;29.97;101251.81;1730226;82;25965;-68
2022/12/14 10:54:30;;;;;;;17.75;8.48;;;;;;;14.30;30.88;101247.09;1742228;81;27537;-68
2022/12/14 10:56:57;;;;;;;14.50;8.65;;;;;;;14.35;29.24;101244.81;1761785;81;26634;-68
2022/12/14 10:59:37;;;;;;;16.05;8.18;;;;;;;14.55;30.01;101239.30;1761520;81;25737;-67
2022/12/14 11:02:17;;;;;;;16.17;7.85;;;;;;;14.71;28.40;101244.07;1761483;80;25772;-68
2022/12/14 11:04:57;;;;;;;14.38;8.05;;;;;;;14.61;27.62;101236.50;1761625;81;25709;-67
2022/12/14 11:07:35;;;;;;;11.95;7.53;;;;;;;14.43;27.38;101240.02;1761691;81;27512;-68
2022/12/14 11:10:26;;;;;;;12.43;7.33;;;;;;;14.03;28.43;101242.52;1761465;80;25724;-67
2022/12/14 11:13:20;;;;;;;18.75;7.47;;;;;;;13.83;28.56;101233.61;1761493;81;25755;-68
2022/12/14 11:15:50;;;;;;;20.55;7.03;;;;;;;13.70;29.35;101235.28;1761359;81;25893;-68
2022/12/14 11:18:23;;;;;;;13.78;7.42;;;;;;;13.74;29.31;101235.33;1761325;81;26141;-67
2022/12/14 11:20:58;;;;;;;13.68;7.90;;;;;;;13.66;29.75;101229.80;1760945;81;27491;-68
2022/12/14 11:23:29;;;;;;;15.35;8.23;;;;;;;13.62;28.98;101237.34;1761691;81;25767;-68
2022/12/14 11:26:02;;;;;;;17.25;7.80;;;;;;;13.50;28.44;101242.55;1742061;80;25795;-68
2022/12/14 11:28:48;;;;;;;11.33;7.50;;;;;;;13.07;28.58;101233.87;1733835;80;26493;-67
2022/12/14 11:31:44;;;;;;;18.95;11.45;;;;;;;12.71;28.89;101234.38;1736243;82;25808;-66
2022/12/14 11:34:30;;;;;;;11.53;8.15;;;;;;;12.22;29.71;101228.83;1728651;80;28158;-66
2022/12/14 11:37:13;;;;;;;15.75;8.63;;;;;;;11.96;30.35;101231.11;1724926;82;25798;-67
2022/12/14 11:39:41;;;;;;;15.90;7.78;;;;;;;11.85;30.54;101226.15;1724701;82;26198;-64
2022/12/14 11:42:18;;;;;;;16.32;8.68;;;;;;;11.73;30.67;101227.20;1724925;83;25831;-66
2022/12/14 11:44:47;;;;;;;15.15;8.23;;;;;;;11.53;30.66;101227.07;1724951;82;25785;-67
2022/12/14 11:47:25;;;;;;;15.38;8.23;;;;;;;11.27;31.16;101228.80;1724377;82;27461;-66
2022/12/14 11:49:59;;;;;;;23.18;8.15;;;;;;;11.07;31.59;101226.95;1724604;82;25666;-66
2022/12/14 11:52:40;;;;;;;14.53;8.35;;;;;;;11.00;31.16;101229.77;1725003;83;25760;-66
2022/12/14 11:55:14;;;;;;;12.55;8.73;;;;;;;10.78;31.72;101235.09;1714245;81;26442;-65
2022/12/14 11:57:57;;;;;;;21.45;7.53;;;;;;;10.55;32.20;101222.17;1716808;83;25782;-66
2022/12/14 12:00:35;;;;;;;15.03;7.65;;;;;;;10.43;31.87;101226.72;1716730;83;27471;-64
2022/12/14 12:03:10;;;;;;;19.40;8.00;;;;;;;9.98;32.09;101216.82;1716762;82;25729;-66